createdAt,value
2019-02-19T00:04:17.327Z,48.22
2019-02-19T00:09:19.345Z,47.69
2019-02-19T00:14:20.973Z,47.72
2019-02-19T00:19:22.651Z,47.68
2019-02-19T00:24:24.209Z,47.47
2019-02-19T00:29:25.826Z,47.37
2019-02-19T00:34:27.505Z,47.18
2019-02-19T00:39:29.445Z,47.35
2019-02-19T00:44:31.003Z,47.60
2019-02-19T00:49:32.572Z,46.94
2019-02-19T00:54:34.132Z,47.22
2019-02-19T00:59:35.695Z,47.08
2019-02-19T01:04:37.387Z,46.87
2019-02-19T01:09:39.134Z,46.86
2019-02-19T01:14:40.873Z,46.95
2019-02-19T01:19:42.573Z,47.42
2019-02-19T01:24:44.129Z,47.26
2019-02-19T01:29:45.684Z,47.48
2019-02-19T01:34:47.277Z,46.89
2019-02-19T01:39:48.929Z,46.94
2019-02-19T01:44:50.490Z,47.00
2019-02-19T01:49:52.045Z,46.73
2019-02-19T01:54:53.646Z,47.00
2019-02-19T01:59:55.201Z,47.20
2019-02-19T02:04:56.760Z,46.80
2019-02-19T02:09:58.359Z,47.07
2019-02-19T02:15:00.022Z,47.26
2019-02-19T02:20:01.921Z,47.65
2019-02-19T02:25:04.131Z,48.15
2019-02-19T02:30:07.081Z,48.18
2019-02-19T02:35:11.251Z,48.21
2019-02-19T02:40:12.706Z,48.48
2019-02-19T02:45:14.234Z,50.22
2019-02-19T02:50:15.794Z,50.32
2019-02-19T02:55:17.369Z,50.24
2019-02-19T03:00:19.074Z,51.06
2019-02-19T03:05:20.631Z,51.49
2019-02-19T03:10:22.230Z,51.72
2019-02-19T03:15:23.841Z,52.20
2019-02-19T03:20:25.404Z,52.39
2019-02-19T03:25:26.969Z,52.40
2019-02-19T03:30:28.568Z,52.64
2019-02-19T03:35:30.160Z,52.71
2019-02-19T03:40:32.009Z,52.34
2019-02-19T03:45:33.619Z,52.27
2019-02-19T03:50:35.221Z,52.12
2019-02-19T03:55:36.785Z,52.15
2019-02-19T04:00:38.605Z,52.16
2019-02-19T04:05:40.373Z,52.57
2019-02-19T04:10:42.067Z,52.07
2019-02-19T04:15:43.687Z,52.50
2019-02-19T04:20:45.282Z,52.35
2019-02-19T04:25:46.944Z,51.73
2019-02-19T04:30:48.523Z,51.83
2019-02-19T04:35:50.079Z,51.91
2019-02-19T04:40:51.629Z,51.87
2019-02-19T04:45:53.253Z,52.07
2019-02-19T04:50:54.806Z,52.12
2019-02-19T04:55:56.360Z,51.34
2019-02-19T05:00:57.912Z,51.43
2019-02-19T05:05:59.476Z,51.55
2019-02-19T05:11:01.173Z,51.77
2019-02-19T05:16:03.965Z,51.25
2019-02-19T05:21:05.575Z,52.32
2019-02-19T05:26:07.254Z,51.76
2019-02-19T05:31:08.845Z,51.85
2019-02-19T05:36:10.410Z,52.14
2019-02-19T05:41:11.986Z,52.29
2019-02-19T05:46:13.612Z,52.38
2019-02-19T05:51:15.169Z,52.46
2019-02-19T05:56:16.729Z,52.02
2019-02-19T06:01:18.297Z,52.06
2019-02-19T06:06:19.906Z,52.23
2019-02-19T06:11:21.507Z,51.87
2019-02-19T06:16:23.134Z,51.92
2019-02-19T06:21:24.789Z,51.42
2019-02-19T06:26:26.348Z,50.89
2019-02-19T06:31:27.933Z,49.47
2019-02-19T06:36:29.602Z,47.90
2019-02-19T06:41:31.237Z,46.19
2019-02-19T06:46:32.942Z,44.94
2019-02-19T06:51:34.534Z,43.56
2019-02-19T06:56:36.120Z,42.84
2019-02-19T07:01:40.790Z,42.16
2019-02-19T07:06:42.387Z,41.59
2019-02-19T07:11:43.981Z,40.36
2019-02-19T07:16:45.548Z,39.39
2019-02-19T07:21:47.155Z,39.39
2019-02-19T07:26:48.752Z,39.59
2019-02-19T07:31:50.309Z,39.10
2019-02-19T07:36:51.869Z,37.68
2019-02-19T07:41:53.806Z,37.90
2019-02-19T07:46:55.383Z,37.15
2019-02-19T07:51:57.009Z,36.63
2019-02-19T07:56:58.575Z,36.58
2019-02-19T08:02:00.147Z,36.14
2019-02-19T08:07:01.721Z,34.67
2019-02-19T08:12:03.304Z,35.20
2019-02-19T08:17:04.911Z,33.09
2019-02-19T08:22:06.785Z,34.10
2019-02-19T08:27:08.375Z,33.88
2019-02-19T08:32:10.050Z,34.63
2019-02-19T08:37:14.113Z,34.61
2019-02-19T08:42:15.764Z,33.99
2019-02-19T08:47:17.336Z,32.95
2019-02-19T08:52:19.061Z,32.91
2019-02-19T08:57:20.957Z,32.21
2019-02-19T09:02:22.526Z,32.80
2019-02-19T09:07:24.172Z,32.66
2019-02-19T09:12:25.737Z,31.98
2019-02-19T09:17:27.331Z,32.54
2019-02-19T09:22:28.963Z,31.84
2019-02-19T09:27:30.506Z,30.83
2019-02-19T09:32:32.082Z,30.70
2019-02-19T09:37:33.691Z,29.83
2019-02-19T09:42:35.323Z,30.53
2019-02-19T09:47:36.906Z,30.56
2019-02-19T09:52:38.461Z,30.45
2019-02-19T09:57:40.067Z,30.36
2019-02-19T10:02:43.724Z,31.70
2019-02-19T10:07:45.216Z,31.75
2019-02-19T10:12:46.851Z,30.39
2019-02-19T10:17:48.449Z,31.49
2019-02-19T10:22:50.025Z,32.47
2019-02-19T10:27:52.097Z,31.42
2019-02-19T10:32:53.658Z,31.19
2019-02-19T10:37:55.431Z,31.97
2019-02-19T10:42:57.113Z,31.53
2019-02-19T10:47:58.681Z,32.51
2019-02-19T10:53:00.253Z,32.15
2019-02-19T10:58:01.925Z,32.21
2019-02-19T11:03:03.494Z,33.60
2019-02-19T11:08:05.068Z,32.89
2019-02-19T11:13:06.706Z,32.60
2019-02-19T11:18:08.416Z,31.10
2019-02-19T11:23:09.977Z,31.29
2019-02-19T11:28:12.153Z,30.04
2019-02-19T11:33:13.713Z,30.08
2019-02-19T11:38:15.281Z,30.10
2019-02-19T11:43:16.953Z,30.12
2019-02-19T11:48:19.214Z,30.54
2019-02-19T11:53:22.290Z,30.52
2019-02-19T11:58:24.049Z,30.65
2019-02-19T12:03:25.660Z,31.87
2019-02-19T12:08:27.234Z,30.86
2019-02-19T12:13:28.946Z,31.52
2019-02-19T12:18:30.505Z,31.49
2019-02-19T12:23:32.082Z,31.20
2019-02-19T12:28:33.666Z,32.58
2019-02-19T12:33:35.293Z,31.80
2019-02-19T12:38:36.855Z,31.08
2019-02-19T12:43:38.498Z,33.02
2019-02-19T12:48:40.067Z,32.15
2019-02-19T12:53:41.635Z,31.86
2019-02-19T12:58:43.202Z,32.79
2019-02-19T13:03:44.842Z,32.48
2019-02-19T13:08:46.422Z,33.29
2019-02-19T13:13:48.129Z,32.21
2019-02-19T13:18:49.694Z,32.88
2019-02-19T13:23:51.400Z,33.25
2019-02-19T13:28:52.964Z,34.09
2019-02-19T13:33:54.567Z,33.29
2019-02-19T13:38:56.117Z,34.18
2019-02-19T13:43:57.785Z,34.94
2019-02-19T13:48:59.397Z,34.12
2019-02-19T13:54:02.893Z,33.35
2019-02-19T13:59:04.456Z,33.96
2019-02-19T14:04:06.013Z,34.12
2019-02-19T14:09:07.601Z,35.66
2019-02-19T14:14:12.994Z,34.70
2019-02-19T14:19:21.192Z,35.61
2019-02-19T14:24:20.276Z,35.72
2019-02-19T14:29:40.262Z,35.61
2019-02-19T14:35:00.335Z,34.77
2019-02-19T14:40:10.062Z,35.46
2019-02-19T14:45:11.931Z,35.94
2019-02-19T14:50:13.962Z,36.38
2019-02-19T14:55:35.754Z,36.19
2019-02-19T15:00:45.120Z,37.14
2019-02-19T15:05:49.090Z,37.41
2019-02-19T15:10:57.174Z,36.90
2019-02-19T15:16:00.714Z,38.21
2019-02-19T15:21:19.657Z,38.73
2019-02-19T15:26:23.126Z,39.15
2019-02-19T15:31:43.430Z,40.03
2019-02-19T15:36:58.474Z,40.49
2019-02-19T15:42:01.947Z,40.89
2019-02-19T15:47:06.049Z,40.69
2019-02-19T15:52:28.192Z,41.92
2019-02-19T15:57:40.885Z,41.24
2019-02-19T16:02:47.098Z,41.66
2019-02-19T16:07:53.102Z,42.67
2019-02-19T16:13:00.430Z,43.59
2019-02-19T16:18:11.173Z,43.70
2019-02-19T16:23:32.406Z,43.73
2019-02-19T16:28:44.703Z,44.09
2019-02-19T16:33:57.130Z,45.17
2019-02-19T16:39:00.598Z,44.59
2019-02-19T16:44:04.084Z,45.57
2019-02-19T16:49:07.628Z,46.14
2019-02-19T16:54:12.195Z,46.69
2019-02-19T16:59:13.906Z,47.01
2019-02-19T17:04:17.417Z,47.26
2019-02-19T17:09:33.387Z,47.77
2019-02-19T17:14:48.689Z,47.73
2019-02-19T17:20:21.047Z,48.38
2019-02-19T17:25:17.426Z,48.46
2019-02-19T17:30:20.947Z,49.23
2019-02-19T17:35:27.325Z,49.25
2019-02-19T17:40:33.458Z,49.58
2019-02-19T17:45:55.357Z,49.56
2019-02-19T17:50:59.760Z,49.77
2019-02-19T17:56:27.021Z,50.00
2019-02-19T18:01:30.678Z,49.86
2019-02-19T18:06:37.187Z,49.94
2019-02-19T18:11:57.625Z,49.64
2019-02-19T18:17:03.908Z,50.05
2019-02-19T18:22:06.693Z,49.94
2019-02-19T18:27:08.267Z,49.67
2019-02-19T18:32:09.854Z,49.84
2019-02-19T18:37:12.197Z,49.09
2019-02-19T18:42:13.779Z,49.21
2019-02-19T18:47:16.483Z,49.08
2019-02-19T18:52:18.261Z,49.68
2019-02-19T18:57:19.837Z,49.78
2019-02-19T19:02:21.476Z,50.44
2019-02-19T19:07:23.056Z,50.47
2019-02-19T19:12:24.687Z,50.95
2019-02-19T19:17:26.310Z,50.12
2019-02-19T19:22:28.251Z,50.59
2019-02-19T19:27:29.879Z,50.28
2019-02-19T19:32:31.473Z,49.54
2019-02-19T19:37:33.058Z,49.31
2019-02-19T19:42:34.886Z,49.34
2019-02-19T19:47:36.443Z,49.59
2019-02-19T19:52:38.110Z,49.69
2019-02-19T19:57:39.680Z,49.55
2019-02-19T20:02:41.257Z,49.02
2019-02-19T20:07:42.835Z,49.14
2019-02-19T20:12:44.411Z,49.06
2019-02-19T20:17:46.016Z,48.83
2019-02-19T20:22:47.662Z,49.32
2019-02-19T20:27:49.331Z,49.17
2019-02-19T20:32:51.005Z,49.10
2019-02-19T20:37:54.231Z,49.27
2019-02-19T20:42:56.325Z,49.21
2019-02-19T20:47:59.802Z,49.63
2019-02-19T20:53:01.807Z,50.29
2019-02-19T20:58:03.660Z,50.75
2019-02-19T21:03:07.221Z,51.30
2019-02-19T21:08:09.594Z,52.36
2019-02-19T21:13:11.359Z,52.56
2019-02-19T21:18:13.686Z,53.95
2019-02-19T21:23:15.767Z,56.46
2019-02-19T21:28:17.570Z,56.19
2019-02-19T21:33:19.236Z,56.55
2019-02-19T21:38:20.893Z,59.11
2019-02-19T21:43:22.664Z,60.80
2019-02-19T21:48:24.538Z,59.84
2019-02-19T21:53:26.221Z,60.91
2019-02-19T21:58:27.887Z,61.41
2019-02-19T22:03:29.753Z,62.87
2019-02-19T22:08:31.513Z,64.02
2019-02-19T22:13:33.109Z,65.55
2019-02-19T22:18:34.669Z,66.21
2019-02-19T22:23:36.249Z,67.17
2019-02-19T22:28:37.854Z,68.12
2019-02-19T22:33:39.423Z,69.39
2019-02-19T22:38:41.024Z,70.71
2019-02-19T22:43:43.689Z,71.36
2019-02-19T22:48:45.266Z,72.78
2019-02-19T22:53:54.730Z,72.96
2019-02-19T22:58:56.289Z,72.90
2019-02-19T23:03:58.548Z,73.95
2019-02-19T23:09:00.189Z,74.32
2019-02-19T23:14:01.762Z,74.23
2019-02-19T23:19:04.762Z,74.49
2019-02-19T23:24:06.323Z,75.02
2019-02-19T23:29:07.898Z,75.26
2019-02-19T23:34:09.805Z,75.96
2019-02-19T23:39:11.425Z,76.16
2019-02-19T23:44:13.504Z,76.69
2019-02-19T23:49:15.218Z,76.73
2019-02-19T23:54:16.897Z,76.49
2019-02-19T23:59:18.466Z,76.53
